createdAt,value
2017-11-03T00:00:10.806Z,8.22
2017-11-03T00:01:20.258Z,8.25
2017-11-03T00:02:29.757Z,8.30
2017-11-03T00:03:39.192Z,8.31
2017-11-03T00:04:48.693Z,8.31
2017-11-03T00:05:58.149Z,8.27
2017-11-03T00:07:07.676Z,8.34
2017-11-03T00:08:17.104Z,8.39
2017-11-03T00:09:26.553Z,8.39
2017-11-03T00:10:36.000Z,8.44
2017-11-03T00:11:45.464Z,8.42
2017-11-03T00:12:55.022Z,8.35
2017-11-03T00:14:04.424Z,8.27
2017-11-03T00:15:13.876Z,8.15
2017-11-03T00:16:23.406Z,8.02
2017-11-03T00:17:32.833Z,7.98
2017-11-03T00:18:42.364Z,7.94
2017-11-03T00:19:52.260Z,7.92
2017-11-03T00:21:01.737Z,7.90
2017-11-03T00:22:10.671Z,7.94
2017-11-03T00:23:20.129Z,7.94
2017-11-03T00:24:29.625Z,7.98
2017-11-03T00:25:39.066Z,8.01
2017-11-03T00:26:48.566Z,8.01
2017-11-03T00:27:58.001Z,8.00
2017-11-03T00:29:08.470Z,8.02
2017-11-03T00:30:16.914Z,8.03
2017-11-03T00:31:26.384Z,8.07
2017-11-03T00:32:35.914Z,8.07
2017-11-03T00:33:45.291Z,8.07
2017-11-03T00:34:54.958Z,8.06
2017-11-03T00:36:04.301Z,8.05
2017-11-03T00:37:13.681Z,8.09
2017-11-03T00:38:23.154Z,8.10
2017-11-03T00:39:32.612Z,8.09
2017-11-03T00:40:42.112Z,8.09
2017-11-03T00:41:51.493Z,8.09
2017-11-03T00:43:00.943Z,8.05
2017-11-03T00:44:10.426Z,8.01
2017-11-03T00:45:19.927Z,7.94
2017-11-03T00:46:29.317Z,7.92
2017-11-03T00:47:38.784Z,7.88
2017-11-03T00:48:48.315Z,7.88
2017-11-03T00:49:57.703Z,7.86
2017-11-03T00:51:07.126Z,7.82
2017-11-03T00:52:16.599Z,7.75
2017-11-03T00:53:26.028Z,7.69
2017-11-03T00:54:35.503Z,7.69
2017-11-03T00:55:45.063Z,7.71
2017-11-03T00:56:54.373Z,7.71
2017-11-03T00:58:03.825Z,7.65
2017-11-03T00:59:13.356Z,7.65
2017-11-03T01:00:22.731Z,7.67
2017-11-03T01:01:32.228Z,7.67
2017-11-03T01:02:41.656Z,7.69
2017-11-03T01:03:51.058Z,7.76
2017-11-03T01:05:00.541Z,7.79
2017-11-03T01:06:10.040Z,7.80
2017-11-03T01:07:19.398Z,7.77
2017-11-03T01:08:28.843Z,7.76
2017-11-03T01:09:38.311Z,7.73
2017-11-03T01:10:47.829Z,7.73
2017-11-03T01:11:57.187Z,7.71
2017-11-03T01:13:06.620Z,7.67
2017-11-03T01:14:17.779Z,7.63
2017-11-03T01:15:25.516Z,7.63
2017-11-03T01:16:34.960Z,7.65
2017-11-03T01:17:44.431Z,7.67
2017-11-03T01:18:53.842Z,7.67
2017-11-03T01:20:03.399Z,7.73
2017-11-03T01:21:12.811Z,7.79
2017-11-03T01:22:22.176Z,7.86
2017-11-03T01:23:31.669Z,7.88
2017-11-03T01:24:41.110Z,7.90
2017-11-03T01:25:50.522Z,7.88
2017-11-03T01:27:00.054Z,7.92
2017-11-03T01:28:09.482Z,7.90
2017-11-03T01:29:19.949Z,7.90
2017-11-03T01:30:28.285Z,7.86
2017-11-03T01:31:38.277Z,7.86
2017-11-03T01:32:47.272Z,7.86
2017-11-03T01:33:56.625Z,7.88
2017-11-03T01:35:06.097Z,7.92
2017-11-03T01:36:15.580Z,7.92
2017-11-03T01:37:25.008Z,7.88
2017-11-03T01:38:34.405Z,7.84
2017-11-03T01:39:43.881Z,7.80
2017-11-03T01:40:53.395Z,7.80
2017-11-03T01:42:03.736Z,7.80
2017-11-03T01:43:12.251Z,7.82
2017-11-03T01:44:21.696Z,7.80
2017-11-03T01:45:31.635Z,7.80
2017-11-03T01:46:40.534Z,7.79
2017-11-03T01:47:49.965Z,7.76
2017-11-03T01:48:59.408Z,7.76
2017-11-03T01:50:08.937Z,7.76
2017-11-03T01:51:18.349Z,7.77
2017-11-03T01:52:27.777Z,7.77
2017-11-03T01:53:37.178Z,7.76
2017-11-03T01:54:46.648Z,7.75
2017-11-03T01:55:57.063Z,7.73
2017-11-03T01:57:05.594Z,7.73
2017-11-03T01:58:14.971Z,7.73
2017-11-03T01:59:25.144Z,7.73
2017-11-03T02:00:33.897Z,7.71
2017-11-03T02:01:43.817Z,7.71
2017-11-03T02:02:52.834Z,7.71
2017-11-03T02:04:02.262Z,7.73
2017-11-03T02:05:11.663Z,7.73
2017-11-03T02:06:21.118Z,7.77
2017-11-03T02:07:30.518Z,7.80
2017-11-03T02:08:39.980Z,7.80
2017-11-03T02:09:49.433Z,7.80
2017-11-03T02:10:58.846Z,7.82
2017-11-03T02:12:08.288Z,7.86
2017-11-03T02:13:17.724Z,7.88
2017-11-03T02:14:27.748Z,7.86
2017-11-03T02:15:36.662Z,7.86
2017-11-03T02:16:46.050Z,7.84
2017-11-03T02:17:55.508Z,7.84
2017-11-03T02:19:05.032Z,7.84
2017-11-03T02:20:14.404Z,7.82
2017-11-03T02:21:23.888Z,7.82
2017-11-03T02:22:33.261Z,7.82
2017-11-03T02:23:42.710Z,7.84
2017-11-03T02:24:52.433Z,7.82
2017-11-03T02:26:01.608Z,7.82
2017-11-03T02:27:11.131Z,7.80
2017-11-03T02:28:20.560Z,7.80
2017-11-03T02:29:29.933Z,7.82
2017-11-03T02:30:39.390Z,7.82
2017-11-03T02:31:48.844Z,7.79
2017-11-03T02:32:58.265Z,7.75
2017-11-03T02:34:07.704Z,7.73
2017-11-03T02:35:17.227Z,7.71
2017-11-03T02:36:26.658Z,7.69
2017-11-03T02:37:36.085Z,7.67
2017-11-03T02:38:45.514Z,7.67
2017-11-03T02:39:54.943Z,7.67
2017-11-03T02:41:04.397Z,7.69
2017-11-03T02:42:13.801Z,7.71
2017-11-03T02:43:23.245Z,7.75
2017-11-03T02:44:32.684Z,7.77
2017-11-03T02:45:42.184Z,7.76
2017-11-03T02:46:51.628Z,7.76
2017-11-03T02:48:01.001Z,7.75
2017-11-03T02:49:10.468Z,7.73
2017-11-03T02:50:19.897Z,7.73
2017-11-03T02:51:29.354Z,7.73
2017-11-03T02:52:38.852Z,7.78
2017-11-03T02:53:48.283Z,7.80
2017-11-03T02:54:57.660Z,7.82
2017-11-03T02:56:07.099Z,7.82
2017-11-03T02:57:16.583Z,7.84
2017-11-03T02:58:26.100Z,7.84
2017-11-03T02:59:35.439Z,7.84
2017-11-03T03:00:44.893Z,7.84
2017-11-03T03:01:54.370Z,7.86
2017-11-03T03:03:03.781Z,7.86
2017-11-03T03:04:13.215Z,7.86
2017-11-03T03:05:22.671Z,7.82
2017-11-03T03:06:32.379Z,7.82
2017-11-03T03:07:41.568Z,7.80
2017-11-03T03:08:51.053Z,7.80
2017-11-03T03:10:00.441Z,7.79
2017-11-03T03:11:09.883Z,7.82
2017-11-03T03:12:19.366Z,7.84
2017-11-03T03:13:28.784Z,7.86
2017-11-03T03:14:38.220Z,7.88
2017-11-03T03:15:47.724Z,7.86
2017-11-03T03:16:57.259Z,7.86
2017-11-03T03:18:06.578Z,7.84
2017-11-03T03:19:16.016Z,7.82
2017-11-03T03:20:25.534Z,7.82
2017-11-03T03:21:35.887Z,7.82
2017-11-03T03:22:44.363Z,7.80
2017-11-03T03:23:53.786Z,7.80
2017-11-03T03:25:03.225Z,7.79
2017-11-03T03:26:12.678Z,7.80
2017-11-03T03:27:22.226Z,7.79
2017-11-03T03:28:31.634Z,7.79
2017-11-03T03:29:41.006Z,7.80
2017-11-03T03:30:51.006Z,7.84
2017-11-03T03:31:59.888Z,7.86
2017-11-03T03:33:09.352Z,7.86
2017-11-03T03:34:18.781Z,7.88
2017-11-03T03:35:28.722Z,7.86
2017-11-03T03:36:37.740Z,7.84
2017-11-03T03:37:47.690Z,7.84
2017-11-03T03:38:56.554Z,7.82
2017-11-03T03:40:05.990Z,7.82
2017-11-03T03:41:15.449Z,7.82
2017-11-03T03:42:24.875Z,7.80
2017-11-03T03:43:34.713Z,7.80
2017-11-03T03:44:43.841Z,7.77
2017-11-03T03:45:53.188Z,7.79
2017-11-03T03:47:02.628Z,7.78
2017-11-03T03:48:12.085Z,7.77
2017-11-03T03:49:21.491Z,7.76
2017-11-03T03:50:30.974Z,7.80
2017-11-03T03:51:40.370Z,7.80
2017-11-03T03:52:49.906Z,7.79
2017-11-03T03:53:59.272Z,7.79
2017-11-03T03:55:08.789Z,7.79
2017-11-03T03:56:18.223Z,7.77
2017-11-03T03:57:27.643Z,7.76
2017-11-03T03:58:37.027Z,7.76
2017-11-03T03:59:46.461Z,7.75
2017-11-03T04:00:55.880Z,7.73
2017-11-03T04:02:05.324Z,7.71
2017-11-03T04:03:14.968Z,7.73
2017-11-03T04:04:24.214Z,7.71
2017-11-03T04:05:33.645Z,7.69
2017-11-03T04:06:43.170Z,7.67
2017-11-03T04:07:53.522Z,7.67
2017-11-03T04:09:02.211Z,7.65
2017-11-03T04:10:11.455Z,7.65
2017-11-03T04:11:20.843Z,7.63
2017-11-03T04:12:30.282Z,7.63
2017-11-03T04:13:39.743Z,7.65
2017-11-03T04:14:49.172Z,7.65
2017-11-03T04:15:58.599Z,7.63
2017-11-03T04:17:08.342Z,7.61
2017-11-03T04:18:17.480Z,7.59
2017-11-03T04:19:26.945Z,7.59
2017-11-03T04:20:36.357Z,7.57
2017-11-03T04:21:45.798Z,7.59
2017-11-03T04:22:55.332Z,7.57
2017-11-03T04:24:04.698Z,7.57
2017-11-03T04:25:14.126Z,7.59
2017-11-03T04:26:24.550Z,7.61
2017-11-03T04:27:33.078Z,7.63
2017-11-03T04:28:43.714Z,7.63
2017-11-03T04:29:51.873Z,7.65
2017-11-03T04:31:01.318Z,7.65
2017-11-03T04:32:10.740Z,7.65
2017-11-03T04:33:20.219Z,7.67
2017-11-03T04:34:29.645Z,7.63
2017-11-03T04:35:39.052Z,7.61
2017-11-03T04:36:48.578Z,7.61
2017-11-03T04:37:58.452Z,7.59
2017-11-03T04:39:07.461Z,7.59
2017-11-03T04:40:16.890Z,7.57
2017-11-03T04:41:26.238Z,7.57
2017-11-03T04:42:35.673Z,7.57
2017-11-03T04:43:45.176Z,7.57
2017-11-03T04:44:54.792Z,7.57
2017-11-03T04:46:03.978Z,7.57
2017-11-03T04:47:13.418Z,7.57
2017-11-03T04:48:22.962Z,7.57
2017-11-03T04:49:32.344Z,7.59
2017-11-03T04:50:41.741Z,7.59
2017-11-03T04:51:51.686Z,7.59
2017-11-03T04:53:00.608Z,7.61
2017-11-03T04:54:10.032Z,7.59
2017-11-03T04:55:19.572Z,7.59
2017-11-03T04:56:29.063Z,7.61
2017-11-03T04:57:38.412Z,7.61
2017-11-03T04:58:47.841Z,7.63
2017-11-03T04:59:57.474Z,7.65
2017-11-03T05:01:06.700Z,7.65
2017-11-03T05:02:16.098Z,7.65
2017-11-03T05:03:26.070Z,7.63
2017-11-03T05:04:34.987Z,7.63
2017-11-03T05:05:44.696Z,7.63
2017-11-03T05:06:53.942Z,7.63
2017-11-03T05:08:03.289Z,7.63
2017-11-03T05:09:12.723Z,7.65
2017-11-03T05:10:22.242Z,7.69
2017-11-03T05:11:31.614Z,7.71
2017-11-03T05:12:41.080Z,7.73
2017-11-03T05:13:50.474Z,7.73
2017-11-03T05:14:59.936Z,7.71
2017-11-03T05:16:09.386Z,7.69
2017-11-03T05:17:18.792Z,7.69
2017-11-03T05:18:28.237Z,7.69
2017-11-03T05:19:37.667Z,7.71
2017-11-03T05:20:47.128Z,7.71
2017-11-03T05:21:56.610Z,7.71
2017-11-03T05:23:06.033Z,7.73
2017-11-03T05:24:15.941Z,7.71
2017-11-03T05:25:25.593Z,7.71
2017-11-03T05:26:34.294Z,7.73
2017-11-03T05:27:43.824Z,7.75
2017-11-03T05:28:53.180Z,7.77
2017-11-03T05:30:03.627Z,7.76
2017-11-03T05:31:12.150Z,7.77
2017-11-03T05:32:21.497Z,7.75
2017-11-03T05:33:30.938Z,7.76
2017-11-03T05:34:40.381Z,7.73
2017-11-03T05:35:49.869Z,7.75
2017-11-03T05:36:59.276Z,7.76
2017-11-03T05:38:08.802Z,7.77
2017-11-03T05:39:18.164Z,7.77
2017-11-03T05:40:27.624Z,7.77
2017-11-03T05:41:37.081Z,7.78
2017-11-03T05:42:46.516Z,7.77
2017-11-03T05:43:55.947Z,7.77
2017-11-03T05:45:05.376Z,7.77
2017-11-03T05:46:14.921Z,7.75
2017-11-03T05:47:24.269Z,7.73
2017-11-03T05:48:33.759Z,7.71
2017-11-03T05:49:43.149Z,7.69
2017-11-03T05:50:53.145Z,7.69
2017-11-03T05:52:02.047Z,7.69
2017-11-03T05:53:11.477Z,7.69
2017-11-03T05:54:20.923Z,7.69
2017-11-03T05:55:30.614Z,7.67
2017-11-03T05:56:39.933Z,7.65
2017-11-03T05:57:49.284Z,7.65
2017-11-03T05:58:59.180Z,7.65
2017-11-03T06:00:08.152Z,7.63
2017-11-03T06:01:17.603Z,7.61
2017-11-03T06:02:27.013Z,7.61
2017-11-03T06:03:36.761Z,7.59
2017-11-03T06:04:46.033Z,7.59
2017-11-03T06:05:55.568Z,7.59
2017-11-03T06:07:05.327Z,7.59
2017-11-03T06:08:14.240Z,7.61
2017-11-03T06:09:23.848Z,7.59
2017-11-03T06:10:33.543Z,7.59
2017-11-03T06:11:42.556Z,7.59
2017-11-03T06:12:52.056Z,7.61
2017-11-03T06:14:01.438Z,7.59
2017-11-03T06:15:10.878Z,7.59
2017-11-03T06:16:20.564Z,7.59
2017-11-03T06:17:29.832Z,7.59
2017-11-03T06:18:39.215Z,7.59
2017-11-03T06:19:48.726Z,7.59
2017-11-03T06:20:58.338Z,7.59
2017-11-03T06:22:07.581Z,7.61
2017-11-03T06:23:17.023Z,7.63
2017-11-03T06:24:26.417Z,7.65
2017-11-03T06:25:35.888Z,7.67
2017-11-03T06:26:45.395Z,7.67
2017-11-03T06:27:54.750Z,7.67
2017-11-03T06:29:04.330Z,7.67
2017-11-03T06:30:13.632Z,7.67
2017-11-03T06:31:23.131Z,7.67
2017-11-03T06:32:32.515Z,7.67
2017-11-03T06:33:41.968Z,7.69
2017-11-03T06:34:51.407Z,7.73
2017-11-03T06:36:00.939Z,7.73
2017-11-03T06:37:10.350Z,7.76
2017-11-03T06:38:19.778Z,7.73
2017-11-03T06:39:29.209Z,7.73
2017-11-03T06:40:38.657Z,7.73
2017-11-03T06:41:48.070Z,7.73
2017-11-03T06:42:57.597Z,7.73
2017-11-03T06:44:06.957Z,7.73
2017-11-03T06:45:16.405Z,7.73
2017-11-03T06:46:25.893Z,7.71
2017-11-03T06:47:35.309Z,7.73
2017-11-03T06:48:44.835Z,7.75
2017-11-03T06:49:54.264Z,7.76
2017-11-03T06:51:04.389Z,7.77
2017-11-03T06:52:13.094Z,7.79
2017-11-03T06:53:23.542Z,7.80
2017-11-03T06:54:32.005Z,7.82
2017-11-03T06:55:42.050Z,7.84
2017-11-03T06:56:50.939Z,7.86
2017-11-03T06:58:00.366Z,7.86
2017-11-03T06:59:09.803Z,7.88
2017-11-03T07:00:19.628Z,7.90
2017-11-03T07:01:28.736Z,7.90
2017-11-03T07:02:38.153Z,7.94
2017-11-03T07:03:47.712Z,7.94
2017-11-03T07:04:57.138Z,7.96
2017-11-03T07:06:06.585Z,7.98
2017-11-03T07:07:15.992Z,8.00
2017-11-03T07:08:25.440Z,8.03
2017-11-03T07:09:34.864Z,8.05
2017-11-03T07:10:44.348Z,8.09
2017-11-03T07:11:53.772Z,8.11
2017-11-03T07:13:03.336Z,8.14
2017-11-03T07:14:12.773Z,8.18
2017-11-03T07:15:22.705Z,8.19
2017-11-03T07:16:31.638Z,8.23
2017-11-03T07:17:41.067Z,8.26
2017-11-03T07:18:50.528Z,8.30
2017-11-03T07:20:00.008Z,8.32
2017-11-03T07:21:09.474Z,8.35
2017-11-03T07:22:18.915Z,8.39
2017-11-03T07:23:28.402Z,8.43
2017-11-03T07:24:37.932Z,8.46
2017-11-03T07:25:47.340Z,8.48
2017-11-03T07:26:56.777Z,8.52
2017-11-03T07:28:06.326Z,8.56
2017-11-03T07:29:15.744Z,8.56
2017-11-03T07:30:25.197Z,8.59
2017-11-03T07:31:34.683Z,8.60
2017-11-03T07:32:44.138Z,8.63
2017-11-03T07:33:53.612Z,8.67
2017-11-03T07:35:03.675Z,8.69
2017-11-03T07:36:12.634Z,8.75
2017-11-03T07:37:22.144Z,8.77
2017-11-03T07:38:31.534Z,8.81
2017-11-03T07:39:41.101Z,8.85
2017-11-03T07:40:52.083Z,8.88
2017-11-03T07:41:59.997Z,8.89
2017-11-03T07:43:09.492Z,8.93
2017-11-03T07:44:18.968Z,8.98
2017-11-03T07:45:28.551Z,9.02
2017-11-03T07:46:38.000Z,9.06
2017-11-03T07:47:47.453Z,9.10
2017-11-03T07:48:56.939Z,9.14
2017-11-03T07:50:06.466Z,9.18
2017-11-03T07:51:16.029Z,9.21
2017-11-03T07:52:25.428Z,9.23
2017-11-03T07:53:34.957Z,9.30
2017-11-03T07:54:44.439Z,9.32
2017-11-03T07:55:54.048Z,9.38
2017-11-03T07:57:03.446Z,9.40
2017-11-03T07:58:12.938Z,9.46
2017-11-03T07:59:22.448Z,9.51
2017-11-03T08:00:33.036Z,9.56
2017-11-03T08:01:41.488Z,9.64
2017-11-03T08:02:50.979Z,9.64
2017-11-03T08:04:00.776Z,9.68
2017-11-03T08:05:10.006Z,9.72
2017-11-03T08:06:20.537Z,9.73
2017-11-03T08:07:29.115Z,9.77
2017-11-03T08:08:38.646Z,9.79
2017-11-03T08:09:48.084Z,9.82
2017-11-03T08:10:57.605Z,9.88
2017-11-03T08:12:07.154Z,9.90
2017-11-03T08:13:17.181Z,9.93
2017-11-03T08:14:26.198Z,9.97
2017-11-03T08:15:35.681Z,10.01
2017-11-03T08:16:45.229Z,10.06
2017-11-03T08:17:54.735Z,10.14
2017-11-03T08:19:04.317Z,10.19
2017-11-03T08:20:13.800Z,10.26
2017-11-03T08:21:23.359Z,10.31
2017-11-03T08:22:32.875Z,10.35
2017-11-03T08:23:42.451Z,10.38
2017-11-03T08:24:52.048Z,10.43
2017-11-03T08:26:01.505Z,10.47
2017-11-03T08:27:11.055Z,10.52
2017-11-03T08:28:20.567Z,10.56
2017-11-03T08:29:30.107Z,10.56
2017-11-03T08:30:39.802Z,10.57
2017-11-03T08:31:49.223Z,10.60
2017-11-03T08:32:58.747Z,10.65
2017-11-03T08:34:08.296Z,10.68
2017-11-03T08:35:18.359Z,10.69
2017-11-03T08:36:27.427Z,10.71
2017-11-03T08:37:37.012Z,10.76
2017-11-03T08:38:46.515Z,10.79
2017-11-03T08:39:56.078Z,10.85
2017-11-03T08:41:05.637Z,10.90
2017-11-03T08:42:15.204Z,10.93
2017-11-03T08:43:24.766Z,10.93
2017-11-03T08:44:34.397Z,10.93
2017-11-03T08:45:43.875Z,10.94
2017-11-03T08:46:53.482Z,10.98
2017-11-03T08:48:03.020Z,11.00
2017-11-03T08:49:12.574Z,11.02
2017-11-03T08:50:22.155Z,11.01
2017-11-03T08:51:31.803Z,10.98
2017-11-03T08:52:41.318Z,11.02
2017-11-03T08:53:50.948Z,11.02
2017-11-03T08:55:00.440Z,11.10
2017-11-03T08:56:10.111Z,11.15
2017-11-03T08:57:19.616Z,11.18
2017-11-03T08:58:29.181Z,11.22
2017-11-03T08:59:38.750Z,11.17
2017-11-03T09:00:48.346Z,11.18
2017-11-03T09:01:58.466Z,11.18
2017-11-03T09:03:07.503Z,11.22
2017-11-03T09:04:17.079Z,11.27
2017-11-03T09:05:26.668Z,11.31
2017-11-03T09:06:36.317Z,11.35
2017-11-03T09:07:45.929Z,11.39
2017-11-03T09:08:55.426Z,11.40
2017-11-03T09:10:05.018Z,11.43
2017-11-03T09:11:14.708Z,11.46
2017-11-03T09:12:24.271Z,11.52
2017-11-03T09:13:33.797Z,11.67
2017-11-03T09:14:43.418Z,11.85
2017-11-03T09:15:53.053Z,12.10
2017-11-03T09:17:02.634Z,12.30
2017-11-03T09:18:12.225Z,12.47
2017-11-03T09:19:22.360Z,12.68
2017-11-03T09:20:31.488Z,12.96
2017-11-03T09:21:41.143Z,13.17
2017-11-03T09:22:50.849Z,13.30
2017-11-03T09:24:00.482Z,13.39
2017-11-03T09:25:10.114Z,13.47
2017-11-03T09:26:19.748Z,13.51
2017-11-03T09:27:29.370Z,13.68
2017-11-03T09:28:39.015Z,13.69
2017-11-03T09:29:48.748Z,13.73
2017-11-03T09:30:58.380Z,13.77
2017-11-03T09:32:08.013Z,13.64
2017-11-03T09:33:17.657Z,13.56
2017-11-03T09:34:27.457Z,13.25
2017-11-03T09:35:36.949Z,12.93
2017-11-03T09:36:47.342Z,12.59
2017-11-03T09:37:56.791Z,12.27
2017-11-03T09:39:06.425Z,12.07
2017-11-03T09:40:15.545Z,11.97
2017-11-03T09:41:25.139Z,11.86
2017-11-03T09:42:35.757Z,11.72
2017-11-03T09:43:44.376Z,11.64
2017-11-03T09:44:53.998Z,11.61
2017-11-03T09:46:03.614Z,11.59
2017-11-03T09:47:13.773Z,11.53
2017-11-03T09:48:22.844Z,11.48
2017-11-03T09:49:32.508Z,11.43
2017-11-03T09:50:42.083Z,11.39
2017-11-03T09:51:51.710Z,11.34
2017-11-03T09:53:01.300Z,11.30
2017-11-03T09:54:10.935Z,11.27
2017-11-03T09:55:20.519Z,11.23
2017-11-03T09:56:30.218Z,11.21
2017-11-03T09:57:39.739Z,11.22
2017-11-03T09:58:49.362Z,11.28
2017-11-03T09:59:58.942Z,11.31
2017-11-03T10:01:08.629Z,11.35
2017-11-03T10:02:18.188Z,11.43
2017-11-03T10:03:28.312Z,11.46
2017-11-03T10:04:37.427Z,11.47
2017-11-03T10:05:46.996Z,11.48
2017-11-03T10:06:56.709Z,11.51
2017-11-03T10:08:06.225Z,11.50
2017-11-03T10:09:15.827Z,11.47
2017-11-03T10:10:25.438Z,11.43
2017-11-03T10:11:35.071Z,11.42
2017-11-03T10:12:44.828Z,11.40
2017-11-03T10:13:54.283Z,11.43
2017-11-03T10:15:03.916Z,11.43
2017-11-03T10:16:13.653Z,11.47
2017-11-03T10:17:24.126Z,11.46
2017-11-03T10:18:32.730Z,11.47
2017-11-03T10:19:42.347Z,11.50
2017-11-03T10:20:52.054Z,11.56
2017-11-03T10:22:01.584Z,11.60
2017-11-03T10:23:11.758Z,11.64
2017-11-03T10:24:20.795Z,11.68
2017-11-03T10:25:30.408Z,11.72
2017-11-03T10:26:40.810Z,11.76
2017-11-03T10:27:49.672Z,11.72
2017-11-03T10:28:59.247Z,11.75
2017-11-03T10:30:08.940Z,11.76
2017-11-03T10:31:18.571Z,11.80
2017-11-03T10:32:28.124Z,11.81
2017-11-03T10:33:37.701Z,11.85
2017-11-03T10:34:47.327Z,11.88
2017-11-03T10:35:57.000Z,11.86
2017-11-03T10:37:06.650Z,11.88
2017-11-03T10:38:16.172Z,11.85
2017-11-03T10:39:25.802Z,11.85
2017-11-03T10:40:35.505Z,11.88
2017-11-03T10:41:45.079Z,11.85
2017-11-03T10:42:54.626Z,11.89
2017-11-03T10:44:04.916Z,11.92
2017-11-03T10:45:13.965Z,11.93
2017-11-03T10:46:23.492Z,11.94
2017-11-03T10:47:33.140Z,12.00
2017-11-03T10:48:42.759Z,12.03
2017-11-03T10:49:52.393Z,12.02
2017-11-03T10:51:01.951Z,12.09
2017-11-03T10:52:11.672Z,12.15
2017-11-03T10:53:21.198Z,12.18
2017-11-03T10:54:30.822Z,12.18
2017-11-03T10:55:40.451Z,12.21
2017-11-03T10:56:50.614Z,12.19
2017-11-03T10:57:59.717Z,12.23
2017-11-03T10:59:09.863Z,12.26
2017-11-03T11:00:18.984Z,12.28
2017-11-03T11:01:28.617Z,12.34
2017-11-03T11:02:38.264Z,12.35
2017-11-03T11:03:47.820Z,12.39
2017-11-03T11:04:57.514Z,12.39
2017-11-03T11:06:07.147Z,12.42
2017-11-03T11:07:16.728Z,12.44
2017-11-03T11:08:27.613Z,12.46
2017-11-03T11:09:35.980Z,12.47
2017-11-03T11:10:45.753Z,12.52
2017-11-03T11:11:55.296Z,12.59
2017-11-03T11:13:04.944Z,12.68
2017-11-03T11:14:14.606Z,12.80
2017-11-03T11:15:24.303Z,12.90
2017-11-03T11:16:34.054Z,13.10
2017-11-03T11:17:44.310Z,13.18
2017-11-03T11:18:54.029Z,13.22
2017-11-03T11:20:03.260Z,13.25
2017-11-03T11:21:13.028Z,13.27
2017-11-03T11:22:22.827Z,13.23
2017-11-03T11:23:33.184Z,13.17
2017-11-03T11:24:42.403Z,13.14
2017-11-03T11:25:52.239Z,13.11
2017-11-03T11:27:02.096Z,13.10
2017-11-03T11:28:11.858Z,13.05
2017-11-03T11:29:21.751Z,13.10
2017-11-03T11:30:31.537Z,13.14
2017-11-03T11:31:41.428Z,13.21
2017-11-03T11:32:51.291Z,13.23
2017-11-03T11:34:01.148Z,13.26
2017-11-03T11:35:11.038Z,13.25
2017-11-03T11:36:20.976Z,13.23
2017-11-03T11:37:31.077Z,13.22
2017-11-03T11:38:40.756Z,13.17
2017-11-03T11:39:50.697Z,13.17
2017-11-03T11:41:00.503Z,13.13
2017-11-03T11:42:10.427Z,13.14
2017-11-03T11:43:20.316Z,13.15
2017-11-03T11:44:30.332Z,13.15
2017-11-03T11:45:40.141Z,13.14
2017-11-03T11:46:50.066Z,13.18
2017-11-03T11:48:00.016Z,13.23
2017-11-03T11:49:09.922Z,13.26
2017-11-03T11:50:19.952Z,13.31
2017-11-03T11:51:29.801Z,13.35
2017-11-03T11:52:39.759Z,13.36
2017-11-03T11:53:49.676Z,13.34
2017-11-03T11:54:59.615Z,13.34
2017-11-03T11:56:09.654Z,13.36
2017-11-03T11:57:19.519Z,13.47
2017-11-03T11:58:29.445Z,13.56
2017-11-03T11:59:39.986Z,13.57
2017-11-03T12:00:49.374Z,13.56
2017-11-03T12:01:59.352Z,13.59
2017-11-03T12:03:09.298Z,13.64
2017-11-03T12:04:19.849Z,13.64
2017-11-03T12:05:29.262Z,13.68
2017-11-03T12:06:39.250Z,13.73
2017-11-03T12:07:49.298Z,13.71
2017-11-03T12:08:59.305Z,13.69
2017-11-03T12:10:09.188Z,13.71
2017-11-03T12:11:19.164Z,13.75
2017-11-03T12:12:29.406Z,13.77
2017-11-03T12:13:39.163Z,13.81
2017-11-03T12:14:49.207Z,13.82
2017-11-03T12:15:59.221Z,13.88
2017-11-03T12:17:09.371Z,13.90
2017-11-03T12:18:19.113Z,13.93
2017-11-03T12:19:29.683Z,13.93
2017-11-03T12:20:39.111Z,13.89
2017-11-03T12:21:49.156Z,13.80
2017-11-03T12:22:59.218Z,13.79
2017-11-03T12:24:09.145Z,13.85
2017-11-03T12:25:19.181Z,13.90
2017-11-03T12:26:29.222Z,13.96
2017-11-03T12:27:39.197Z,14.01
2017-11-03T12:28:49.187Z,13.97
2017-11-03T12:29:59.763Z,14.06
2017-11-03T12:31:09.288Z,14.09
2017-11-03T12:32:20.310Z,14.11
2017-11-03T12:33:29.373Z,14.13
2017-11-03T12:34:39.831Z,14.10
2017-11-03T12:35:49.353Z,14.09
2017-11-03T12:36:59.373Z,14.10
2017-11-03T12:38:09.411Z,14.11
2017-11-03T12:39:19.995Z,14.11
2017-11-03T12:40:29.936Z,14.13
2017-11-03T12:41:39.471Z,14.14
2017-11-03T12:42:49.552Z,14.21
2017-11-03T12:43:59.516Z,14.22
2017-11-03T12:45:09.552Z,14.25
2017-11-03T12:46:19.635Z,14.30
2017-11-03T12:47:29.695Z,14.31
2017-11-03T12:48:39.725Z,14.31
2017-11-03T12:49:49.724Z,14.30
2017-11-03T12:50:59.806Z,14.26
2017-11-03T12:52:09.865Z,14.28
2017-11-03T12:53:19.890Z,14.32
2017-11-03T12:54:29.907Z,14.34
2017-11-03T12:55:39.978Z,14.35
2017-11-03T12:56:50.119Z,14.35
2017-11-03T12:58:00.100Z,14.35
2017-11-03T12:59:10.205Z,14.39
2017-11-03T13:00:20.247Z,14.40
2017-11-03T13:01:30.295Z,14.39
2017-11-03T13:02:40.400Z,14.34
2017-11-03T13:03:50.462Z,14.32
2017-11-03T13:05:00.619Z,14.35
2017-11-03T13:06:10.636Z,14.32
2017-11-03T13:07:20.826Z,14.32
2017-11-03T13:08:30.860Z,14.32
2017-11-03T13:09:40.998Z,14.38
2017-11-03T13:10:51.048Z,14.46
2017-11-03T13:12:01.148Z,14.40
2017-11-03T13:13:11.512Z,14.40
2017-11-03T13:14:21.374Z,14.43
2017-11-03T13:15:31.457Z,14.42
2017-11-03T13:16:41.565Z,14.39
2017-11-03T13:17:51.675Z,14.40
2017-11-03T13:19:01.763Z,14.46
2017-11-03T13:20:11.856Z,14.46
2017-11-03T13:21:21.956Z,14.47
2017-11-03T13:22:32.262Z,14.44
2017-11-03T13:23:42.224Z,14.44
2017-11-03T13:24:52.267Z,14.47
2017-11-03T13:26:02.353Z,14.50
2017-11-03T13:27:12.436Z,14.51
2017-11-03T13:28:22.782Z,14.57
2017-11-03T13:29:32.639Z,14.56
2017-11-03T13:30:42.687Z,14.56
2017-11-03T13:31:52.763Z,14.56
2017-11-03T13:33:02.855Z,14.56
2017-11-03T13:34:13.424Z,14.56
2017-11-03T13:35:22.987Z,14.50
2017-11-03T13:36:33.042Z,14.46
2017-11-03T13:37:43.126Z,14.43
2017-11-03T13:38:53.184Z,14.40
2017-11-03T13:40:03.226Z,14.39
2017-11-03T13:41:13.268Z,14.39
2017-11-03T13:42:23.334Z,14.40
2017-11-03T13:43:33.325Z,14.43
2017-11-03T13:44:43.473Z,14.40
2017-11-03T13:45:53.380Z,14.43
2017-11-03T13:47:03.408Z,14.46
2017-11-03T13:48:13.467Z,14.48
2017-11-03T13:49:23.466Z,14.52
2017-11-03T13:50:33.508Z,14.55
2017-11-03T13:51:43.483Z,14.53
2017-11-03T13:52:53.608Z,14.56
2017-11-03T13:54:03.506Z,14.60
2017-11-03T13:55:13.574Z,14.59
2017-11-03T13:56:23.529Z,14.57
2017-11-03T13:57:33.551Z,14.55
2017-11-03T13:58:43.527Z,14.53
2017-11-03T13:59:53.539Z,14.43
2017-11-03T14:01:03.581Z,14.34
2017-11-03T14:02:13.532Z,14.31
2017-11-03T14:03:23.823Z,14.31
2017-11-03T14:04:33.606Z,14.34
2017-11-03T14:05:43.548Z,14.31
2017-11-03T14:06:53.663Z,14.28
2017-11-03T14:08:04.069Z,14.22
2017-11-03T14:09:13.570Z,14.27
2017-11-03T14:10:23.513Z,14.31
2017-11-03T14:11:33.479Z,14.27
2017-11-03T14:12:43.751Z,14.25
2017-11-03T14:13:53.433Z,14.21
2017-11-03T14:15:03.374Z,14.14
2017-11-03T14:16:13.283Z,14.00
2017-11-03T14:17:23.253Z,13.89
2017-11-03T14:18:33.636Z,13.80
2017-11-03T14:19:43.032Z,13.75
2017-11-03T14:20:52.977Z,13.64
2017-11-03T14:22:02.763Z,13.56
2017-11-03T14:23:12.677Z,13.48
2017-11-03T14:24:22.456Z,13.43
2017-11-03T14:25:32.294Z,13.42
2017-11-03T14:26:42.121Z,13.40
2017-11-03T14:27:51.966Z,13.39
2017-11-03T14:29:01.764Z,13.43
2017-11-03T14:30:11.568Z,13.53
2017-11-03T14:31:21.407Z,13.64
2017-11-03T14:32:31.765Z,13.72
2017-11-03T14:33:40.980Z,13.81
2017-11-03T14:34:50.817Z,13.93
2017-11-03T14:36:00.522Z,14.06
2017-11-03T14:37:10.389Z,14.10
2017-11-03T14:38:20.309Z,14.14
2017-11-03T14:39:29.822Z,14.17
2017-11-03T14:40:39.597Z,14.22
2017-11-03T14:41:50.356Z,14.27
2017-11-03T14:42:59.116Z,14.30
2017-11-03T14:44:08.847Z,14.28
2017-11-03T14:45:18.715Z,14.30
2017-11-03T14:46:28.374Z,14.27
2017-11-03T14:47:38.098Z,14.25
2017-11-03T14:48:47.805Z,14.22
2017-11-03T14:49:57.531Z,14.21
2017-11-03T14:51:08.306Z,14.19
2017-11-03T14:52:17.048Z,14.19
2017-11-03T14:53:26.827Z,14.15
2017-11-03T14:54:36.423Z,14.11
2017-11-03T14:55:46.285Z,14.10
2017-11-03T14:56:57.596Z,14.07
2017-11-03T14:58:05.790Z,14.09
2017-11-03T14:59:15.528Z,14.10
2017-11-03T15:01:35.394Z,14.15
2017-11-03T15:02:45.277Z,14.17
2017-11-03T15:03:54.265Z,14.17
2017-11-03T15:05:06.920Z,14.17
2017-11-03T15:06:13.722Z,14.18
2017-11-03T15:07:23.856Z,14.19
2017-11-03T15:08:33.442Z,14.15
2017-11-03T15:09:43.828Z,14.10
2017-11-03T15:10:52.617Z,14.06
2017-11-03T15:12:03.436Z,13.98
2017-11-03T15:13:13.524Z,13.94